createdAt,value
2022-12-08T00:00:18.274Z,1.00
2022-12-08T00:03:04.933Z,1.00
2022-12-08T00:05:51.622Z,1.00
2022-12-08T00:08:38.168Z,1.00
2022-12-08T00:11:24.673Z,0.90
2022-12-08T00:14:11.365Z,0.90
2022-12-08T00:16:57.947Z,0.90
2022-12-08T00:19:44.532Z,0.90
2022-12-08T00:22:31.034Z,0.90
2022-12-08T00:25:17.566Z,0.90
2022-12-08T00:28:04.145Z,0.90
2022-12-08T00:30:50.684Z,0.90
2022-12-08T00:33:37.216Z,0.90
2022-12-08T00:36:23.725Z,0.80
2022-12-08T00:39:10.241Z,0.80
2022-12-08T00:41:56.985Z,0.80
2022-12-08T00:44:43.493Z,0.80
2022-12-08T00:47:30.036Z,0.80
2022-12-08T00:50:16.499Z,0.80
2022-12-08T00:53:03.054Z,0.80
2022-12-08T00:55:49.561Z,0.70
2022-12-08T00:58:36.096Z,0.70
2022-12-08T01:01:22.731Z,0.70
2022-12-08T01:04:09.367Z,0.70
2022-12-08T01:06:55.870Z,0.70
2022-12-08T01:09:42.425Z,0.70
2022-12-08T01:12:28.926Z,0.70
2022-12-08T01:15:15.440Z,0.70
2022-12-08T01:18:01.958Z,0.70
2022-12-08T01:20:48.504Z,0.70
2022-12-08T01:23:35.023Z,0.70
2022-12-08T01:26:21.568Z,0.70
2022-12-08T01:29:08.071Z,0.70
2022-12-08T01:31:54.571Z,0.70
2022-12-08T01:34:41.133Z,0.70
2022-12-08T01:37:27.615Z,0.70
2022-12-08T01:40:14.143Z,0.70
2022-12-08T01:43:00.639Z,0.70
2022-12-08T01:45:47.196Z,0.70
2022-12-08T01:48:33.750Z,0.70
2022-12-08T01:51:20.257Z,0.70
2022-12-08T01:54:06.815Z,0.70
2022-12-08T01:56:53.339Z,0.60
2022-12-08T01:59:39.876Z,0.60
2022-12-08T02:02:26.445Z,0.60
2022-12-08T02:05:12.994Z,0.50
2022-12-08T02:07:59.588Z,0.40
2022-12-08T02:10:46.141Z,0.40
2022-12-08T02:13:32.662Z,0.40
2022-12-08T02:16:19.191Z,0.40
2022-12-08T02:19:29.777Z,0.40
2022-12-08T02:22:12.221Z,0.40
2022-12-08T02:24:58.743Z,0.30
2022-12-08T02:27:45.286Z,0.30
2022-12-08T02:30:31.804Z,0.20
2022-12-08T02:33:18.387Z,0.20
2022-12-08T02:36:04.852Z,0.20
2022-12-08T02:38:51.368Z,0.10
2022-12-08T02:41:37.879Z,0.10
2022-12-08T02:44:24.389Z,0.10
2022-12-08T02:47:10.931Z,0.00
2022-12-08T02:49:57.443Z,0.00
2022-12-08T02:52:44.000Z,-0.10
2022-12-08T02:55:30.507Z,-0.10
2022-12-08T02:58:16.991Z,-0.10
2022-12-08T03:01:03.559Z,-0.10
2022-12-08T03:03:50.185Z,-0.20
2022-12-08T03:06:36.701Z,-0.20
2022-12-08T03:09:23.239Z,-0.30
2022-12-08T03:12:09.753Z,-0.30
2022-12-08T03:14:56.243Z,-0.40
2022-12-08T03:17:42.748Z,-0.40
2022-12-08T03:20:29.262Z,-0.50
2022-12-08T03:23:15.809Z,-0.60
2022-12-08T03:26:02.329Z,-0.70
2022-12-08T03:28:48.919Z,-0.70
2022-12-08T03:31:35.515Z,-0.80
2022-12-08T03:34:22.136Z,-0.80
2022-12-08T03:37:08.640Z,-0.90
2022-12-08T03:39:55.339Z,-0.90
2022-12-08T03:42:41.857Z,-1.00
2022-12-08T03:45:28.395Z,-1.10
2022-12-08T03:48:14.891Z,-1.10
2022-12-08T03:51:01.412Z,-1.10
2022-12-08T03:53:47.954Z,-1.10
2022-12-08T03:56:34.467Z,-1.10
2022-12-08T03:59:21.002Z,-1.00
2022-12-08T04:02:07.600Z,-1.10
2022-12-08T04:04:54.192Z,-1.20
2022-12-08T04:07:40.804Z,-1.20
2022-12-08T04:10:27.362Z,-1.20
2022-12-08T04:13:13.903Z,-1.10
2022-12-08T04:16:01.718Z,-1.10
2022-12-08T04:18:48.442Z,-1.10
2022-12-08T04:21:34.956Z,-1.00
2022-12-08T04:24:21.525Z,-1.00
2022-12-08T04:27:08.196Z,-1.00
2022-12-08T04:29:54.762Z,-1.00
2022-12-08T04:32:45.876Z,-0.90
2022-12-08T04:35:33.982Z,-0.90
2022-12-08T04:38:20.491Z,-0.90
2022-12-08T04:41:07.030Z,-0.80
2022-12-08T04:43:53.690Z,-0.80
2022-12-08T04:46:43.369Z,-0.80
2022-12-08T04:49:30.409Z,-0.80
2022-12-08T04:52:16.919Z,-0.70
2022-12-08T04:55:03.491Z,-0.80
2022-12-08T04:57:50.004Z,-0.80
2022-12-08T05:00:36.537Z,-0.80
2022-12-08T05:03:28.560Z,-0.80
2022-12-08T05:06:15.519Z,-0.80
2022-12-08T05:09:02.031Z,-0.90
2022-12-08T05:11:49.202Z,-0.90
2022-12-08T05:14:35.956Z,-0.90
2022-12-08T05:17:22.506Z,-0.90
2022-12-08T05:20:09.110Z,-0.90
2022-12-08T05:22:55.658Z,-0.90
2022-12-08T05:25:42.187Z,-0.90
2022-12-08T05:28:44.361Z,-0.90
2022-12-08T05:31:31.071Z,-0.90
2022-12-08T05:34:17.641Z,-0.90
2022-12-08T05:37:04.195Z,-0.90
2022-12-08T05:39:50.672Z,-0.90
2022-12-08T05:42:37.220Z,-1.00
2022-12-08T05:45:23.724Z,-1.00
2022-12-08T05:48:10.270Z,-1.00
2022-12-08T05:50:56.784Z,-1.00
2022-12-08T05:53:43.293Z,-0.90
2022-12-08T05:56:29.813Z,-0.90
2022-12-08T05:59:16.359Z,-0.90
2022-12-08T06:02:03.032Z,-0.90
2022-12-08T06:04:49.685Z,-0.90
2022-12-08T06:07:36.219Z,-0.90
2022-12-08T06:10:22.763Z,-0.90
2022-12-08T06:13:09.284Z,-0.90
2022-12-08T06:15:55.838Z,-0.90
2022-12-08T06:18:42.351Z,-0.90
2022-12-08T06:21:28.881Z,-0.90
2022-12-08T06:24:15.367Z,-0.90
2022-12-08T06:27:01.884Z,-0.90
2022-12-08T06:29:48.412Z,-0.90
2022-12-08T06:32:35.042Z,-0.90
2022-12-08T06:35:21.575Z,-0.90
2022-12-08T06:38:08.130Z,-0.90
2022-12-08T06:40:54.644Z,-1.00
2022-12-08T06:43:41.496Z,-1.10
2022-12-08T06:46:28.076Z,-1.10
2022-12-08T06:49:14.657Z,-1.10
2022-12-08T06:52:01.166Z,-1.20
2022-12-08T06:54:47.721Z,-1.20
2022-12-08T06:57:34.236Z,-1.10
2022-12-08T07:00:20.800Z,-1.10
2022-12-08T07:03:07.318Z,-1.10
2022-12-08T07:05:53.810Z,-1.20
2022-12-08T07:08:40.326Z,-1.20
2022-12-08T07:11:26.860Z,-1.20
2022-12-08T07:14:13.418Z,-1.20
2022-12-08T07:16:59.991Z,-1.20
2022-12-08T07:19:46.542Z,-1.20
2022-12-08T07:22:33.059Z,-1.20
2022-12-08T07:25:19.594Z,-1.20
2022-12-08T07:28:06.114Z,-1.20
2022-12-08T07:30:52.729Z,-1.20
2022-12-08T07:33:39.288Z,-1.20
2022-12-08T07:36:25.880Z,-1.20
2022-12-08T07:39:12.413Z,-1.20
2022-12-08T07:41:58.920Z,-1.20
2022-12-08T07:44:45.465Z,-1.20
2022-12-08T07:47:33.027Z,-1.20
2022-12-08T07:50:19.568Z,-1.40
2022-12-08T07:53:06.093Z,-1.40
2022-12-08T07:55:52.591Z,-1.30
2022-12-08T07:58:39.145Z,-1.30
2022-12-08T08:01:25.770Z,-1.20
2022-12-08T08:04:12.588Z,-1.20
2022-12-08T08:06:59.201Z,-1.10
2022-12-08T08:09:45.840Z,-1.00
2022-12-08T08:12:33.077Z,-0.90
2022-12-08T08:15:19.851Z,-0.90
2022-12-08T08:18:06.315Z,-0.80
2022-12-08T08:20:52.897Z,-0.80
2022-12-08T08:23:39.456Z,-0.70
2022-12-08T08:26:27.161Z,-0.70
2022-12-08T08:29:13.899Z,-0.60
2022-12-08T08:32:00.371Z,-0.60
2022-12-08T08:34:46.888Z,-0.60
2022-12-08T08:37:33.398Z,-0.50
2022-12-08T08:40:19.904Z,-0.40
2022-12-08T08:43:06.419Z,-0.50
2022-12-08T08:45:52.949Z,-0.40
2022-12-08T08:48:39.491Z,-0.40
2022-12-08T08:51:26.023Z,-0.30
2022-12-08T08:54:12.532Z,-0.30
2022-12-08T08:56:59.065Z,-0.20
2022-12-08T08:59:45.585Z,-0.20
2022-12-08T09:02:32.109Z,-0.20
2022-12-08T09:05:18.656Z,-0.20
2022-12-08T09:08:05.209Z,-0.20
2022-12-08T09:10:51.830Z,-0.30
2022-12-08T09:13:38.413Z,-0.30
2022-12-08T09:16:25.077Z,-0.30
2022-12-08T09:19:11.728Z,-0.30
2022-12-08T09:21:58.258Z,-0.30
2022-12-08T09:24:44.787Z,-0.30
2022-12-08T09:27:31.306Z,-0.30
2022-12-08T09:30:17.828Z,-0.30
2022-12-08T09:33:04.377Z,-0.30
2022-12-08T09:35:50.896Z,-0.30
2022-12-08T09:38:37.441Z,-0.20
2022-12-08T09:41:23.961Z,-0.10
2022-12-08T09:44:10.492Z,-0.10
2022-12-08T09:46:57.062Z,0.00
2022-12-08T09:49:43.671Z,0.10
2022-12-08T09:52:30.201Z,0.20
2022-12-08T09:55:16.882Z,0.30
2022-12-08T09:58:03.400Z,0.40
2022-12-08T10:00:49.920Z,0.50
2022-12-08T10:03:36.436Z,0.60
2022-12-08T10:06:22.980Z,0.70
2022-12-08T10:09:12.489Z,0.80
2022-12-08T10:11:59.292Z,0.90
2022-12-08T10:14:45.810Z,0.90
2022-12-08T10:17:32.333Z,1.00
2022-12-08T10:20:18.890Z,1.00
2022-12-08T10:23:05.461Z,1.00
2022-12-08T10:25:52.010Z,1.10
2022-12-08T10:28:44.412Z,1.10
2022-12-08T10:31:31.866Z,1.20
2022-12-08T10:34:18.426Z,1.20
2022-12-08T10:37:04.985Z,1.30
2022-12-08T10:39:51.498Z,1.20
2022-12-08T10:42:38.034Z,1.30
2022-12-08T10:45:24.550Z,1.20
2022-12-08T10:48:12.072Z,1.20
2022-12-08T10:50:58.622Z,1.30
2022-12-08T10:53:45.252Z,1.30
2022-12-08T10:56:31.783Z,1.30
2022-12-08T10:59:18.473Z,1.30
2022-12-08T11:02:05.145Z,1.30
2022-12-08T11:04:51.804Z,1.40
2022-12-08T11:07:38.370Z,1.40
2022-12-08T11:10:24.933Z,1.50
2022-12-08T11:13:11.448Z,1.60
2022-12-08T11:15:58.058Z,1.60
2022-12-08T11:18:44.758Z,1.70
2022-12-08T11:21:31.299Z,1.80
2022-12-08T11:24:17.833Z,1.80
2022-12-08T11:27:04.337Z,1.90
2022-12-08T11:29:50.881Z,1.90
2022-12-08T11:32:37.404Z,2.00
2022-12-08T11:35:24.023Z,2.10
2022-12-08T11:38:21.130Z,2.20
2022-12-08T11:41:14.012Z,2.30
2022-12-08T11:44:02.440Z,2.40
2022-12-08T11:46:48.997Z,2.40
2022-12-08T11:49:35.515Z,2.40
2022-12-08T11:52:22.011Z,2.50
2022-12-08T11:55:08.518Z,2.60
2022-12-08T11:57:55.115Z,2.60
2022-12-08T12:00:41.687Z,2.70
2022-12-08T12:03:28.405Z,2.70
2022-12-08T12:09:21.501Z,2.80
2022-12-08T12:12:08.041Z,2.80
2022-12-08T12:14:54.544Z,2.80
2022-12-08T12:17:41.097Z,2.80
2022-12-08T12:20:27.603Z,2.80
2022-12-08T12:23:14.151Z,2.90
2022-12-08T12:26:00.668Z,3.00
2022-12-08T12:28:47.229Z,3.00
2022-12-08T12:31:33.750Z,3.00
2022-12-08T12:34:20.290Z,3.10
2022-12-08T12:37:06.781Z,3.10
2022-12-08T12:39:53.338Z,3.10
2022-12-08T12:42:39.864Z,3.20
2022-12-08T12:45:26.415Z,3.20
2022-12-08T12:48:12.937Z,3.30
2022-12-08T12:50:59.468Z,3.30
2022-12-08T12:53:45.996Z,3.30
2022-12-08T12:56:32.549Z,3.40
2022-12-08T12:59:19.065Z,3.30
2022-12-08T13:02:05.812Z,3.20
2022-12-08T13:04:52.351Z,3.10
2022-12-08T13:07:38.923Z,3.00
2022-12-08T13:10:25.464Z,2.90
2022-12-08T13:13:12.152Z,2.80
2022-12-08T13:15:58.669Z,2.80
2022-12-08T13:18:45.240Z,2.80
2022-12-08T13:21:31.766Z,2.80
2022-12-08T13:24:18.305Z,2.90
2022-12-08T13:27:04.835Z,2.90
2022-12-08T13:29:51.509Z,2.80
2022-12-08T13:33:09.451Z,2.80
2022-12-08T13:35:44.508Z,2.80
2022-12-08T13:38:30.999Z,2.70
2022-12-08T13:41:17.488Z,2.60
2022-12-08T13:45:03.679Z,2.50
2022-12-08T13:47:33.006Z,2.40
2022-12-08T13:51:15.909Z,2.40
2022-12-08T13:57:02.404Z,2.10
2022-12-08T13:59:36.524Z,2.00
2022-12-08T14:02:23.107Z,1.80
2022-12-08T14:05:17.999Z,1.80
2022-12-08T14:08:05.890Z,1.70
2022-12-08T14:10:52.404Z,1.60
2022-12-08T14:13:39.105Z,1.60
2022-12-08T14:16:25.709Z,1.50
2022-12-08T14:19:12.233Z,1.40
2022-12-08T14:21:58.754Z,1.30
2022-12-08T14:24:45.338Z,1.20
2022-12-08T14:27:31.851Z,1.10
2022-12-08T14:30:18.415Z,1.00
2022-12-08T14:33:04.917Z,1.00
2022-12-08T14:35:51.482Z,0.90
2022-12-08T14:38:38.075Z,0.90
2022-12-08T14:41:24.692Z,0.80
2022-12-08T14:44:11.204Z,0.70
2022-12-08T14:47:01.234Z,0.70
2022-12-08T14:49:51.784Z,0.60
2022-12-08T14:52:38.308Z,0.50
2022-12-08T14:55:24.820Z,0.40
2022-12-08T14:58:16.583Z,0.30
2022-12-08T15:01:03.226Z,0.20
2022-12-08T15:03:51.523Z,0.00
2022-12-08T15:06:38.291Z,-0.10
2022-12-08T15:09:25.793Z,-0.20
2022-12-08T15:12:12.326Z,-0.30
2022-12-08T15:14:58.876Z,-0.40
2022-12-08T15:17:45.400Z,-0.50
2022-12-08T15:20:35.364Z,-0.60
2022-12-08T15:23:22.217Z,-0.60
2022-12-08T15:26:08.778Z,-0.70
2022-12-08T15:28:55.256Z,-0.80
2022-12-08T15:31:41.858Z,-0.90
2022-12-08T15:34:28.453Z,-1.00
2022-12-08T15:37:15.012Z,-1.10
2022-12-08T15:40:01.566Z,-1.20
2022-12-08T15:42:48.110Z,-1.20
2022-12-08T15:45:34.647Z,-1.30
2022-12-08T15:48:21.183Z,-1.30
2022-12-08T15:51:07.699Z,-1.30
2022-12-08T15:53:54.321Z,-1.40
2022-12-08T15:56:50.680Z,-1.40
2022-12-08T15:59:47.349Z,-1.40
2022-12-08T16:02:56.403Z,-1.50
2022-12-08T16:05:46.836Z,-1.60
2022-12-08T16:08:56.339Z,-1.70
2022-12-08T16:12:10.151Z,-1.70
2022-12-08T16:18:03.543Z,-1.90
2022-12-08T16:23:56.592Z,-2.00
2022-12-08T16:27:51.140Z,-2.10
2022-12-08T16:29:49.748Z,-2.20
2022-12-08T16:32:36.271Z,-2.40
2022-12-08T16:35:22.832Z,-2.40
2022-12-08T16:38:09.324Z,-2.50
2022-12-08T16:40:55.894Z,-2.60
2022-12-08T16:43:42.408Z,-2.60
2022-12-08T16:46:29.002Z,-2.70
2022-12-08T16:49:15.575Z,-2.80
2022-12-08T16:52:02.093Z,-2.80
2022-12-08T16:54:48.603Z,-2.90
2022-12-08T16:57:35.119Z,-2.90
2022-12-08T17:00:21.666Z,-3.00
2022-12-08T17:03:08.208Z,-3.10
2022-12-08T17:05:54.759Z,-3.10
2022-12-08T17:08:41.276Z,-3.10
2022-12-08T17:11:28.016Z,-3.10
2022-12-08T17:14:14.533Z,-3.20
2022-12-08T17:17:01.151Z,-3.20
2022-12-08T17:19:47.656Z,-3.20
2022-12-08T17:22:34.205Z,-3.20
2022-12-08T17:25:20.723Z,-3.30
2022-12-08T17:28:07.254Z,-3.30
2022-12-08T17:30:53.787Z,-3.30
2022-12-08T17:33:40.279Z,-3.30
2022-12-08T17:36:26.801Z,-3.30
2022-12-08T17:39:18.048Z,-3.40
2022-12-08T17:42:05.392Z,-3.40
2022-12-08T17:44:51.900Z,-3.50
2022-12-08T17:47:38.447Z,-3.50
2022-12-08T17:50:24.956Z,-3.50
2022-12-08T17:53:11.468Z,-3.60
2022-12-08T17:55:57.960Z,-3.50
2022-12-08T17:58:45.682Z,-3.50
2022-12-08T18:01:34.062Z,-3.50
2022-12-08T18:04:20.656Z,-3.50
2022-12-08T18:07:07.211Z,-3.60
2022-12-08T18:09:53.775Z,-3.50
2022-12-08T18:12:40.382Z,-3.50
2022-12-08T18:15:26.923Z,-3.50
2022-12-08T18:18:13.470Z,-3.50
2022-12-08T18:20:59.977Z,-3.70
2022-12-08T18:23:46.681Z,-3.70
2022-12-08T18:26:33.190Z,-3.70
2022-12-08T18:29:19.742Z,-3.60
2022-12-08T18:32:06.230Z,-3.60
2022-12-08T18:34:52.910Z,-3.60
2022-12-08T18:37:39.535Z,-3.70
2022-12-08T18:40:26.133Z,-3.70
2022-12-08T18:43:12.654Z,-3.70
2022-12-08T18:45:59.223Z,-3.80
2022-12-08T18:48:45.767Z,-3.90
2022-12-08T18:51:32.296Z,-3.90
2022-12-08T18:54:21.991Z,-3.90
2022-12-08T18:57:11.016Z,-3.90
2022-12-08T18:59:57.496Z,-4.10
2022-12-08T19:02:44.156Z,-4.10
2022-12-08T19:05:30.869Z,-4.10
2022-12-08T19:08:17.435Z,-4.10
2022-12-08T19:11:04.014Z,-4.10
2022-12-08T19:13:50.540Z,-4.20
2022-12-08T19:16:37.077Z,-4.20
2022-12-08T19:19:23.591Z,-4.20
2022-12-08T19:22:10.093Z,-4.20
2022-12-08T19:24:56.715Z,-4.10
2022-12-08T19:27:43.392Z,-4.10
2022-12-08T19:30:29.916Z,-4.30
2022-12-08T19:33:16.471Z,-4.30
2022-12-08T19:36:02.992Z,-4.20
2022-12-08T19:38:49.548Z,-4.20
2022-12-08T19:41:36.052Z,-4.10
2022-12-08T19:44:22.623Z,-4.10
2022-12-08T19:47:09.176Z,-4.10
2022-12-08T19:49:55.833Z,-4.00
2022-12-08T19:52:42.352Z,-4.10
2022-12-08T19:55:28.908Z,-4.20
2022-12-08T19:58:15.576Z,-4.20
2022-12-08T20:01:02.079Z,-4.20
2022-12-08T20:03:48.579Z,-4.30
2022-12-08T20:06:35.103Z,-4.40
2022-12-08T20:09:21.679Z,-4.40
2022-12-08T20:12:08.216Z,-4.50
2022-12-08T20:14:54.803Z,-4.60
2022-12-08T20:17:41.354Z,-4.70
2022-12-08T20:20:27.926Z,-4.70
2022-12-08T20:23:14.446Z,-4.80
2022-12-08T20:26:01.030Z,-4.80
2022-12-08T20:28:47.582Z,-4.90
2022-12-08T20:31:34.279Z,-4.90
2022-12-08T20:34:20.880Z,-5.00
2022-12-08T20:37:07.447Z,-5.00
2022-12-08T20:39:54.002Z,-5.00
2022-12-08T20:42:40.568Z,-5.00
2022-12-08T20:45:27.099Z,-5.00
2022-12-08T20:48:13.803Z,-5.00
2022-12-08T20:51:00.346Z,-5.00
2022-12-08T20:53:47.091Z,-5.00
2022-12-08T20:56:33.657Z,-5.00
2022-12-08T20:59:20.217Z,-5.00
2022-12-08T21:02:06.779Z,-5.00
2022-12-08T21:04:53.505Z,-4.90
2022-12-08T21:07:40.380Z,-4.90
2022-12-08T21:10:27.071Z,-4.90
2022-12-08T21:13:13.661Z,-4.90
2022-12-08T21:16:00.356Z,-4.90
2022-12-08T21:18:47.017Z,-5.00
2022-12-08T21:21:33.553Z,-4.90
2022-12-08T21:24:20.079Z,-4.90
2022-12-08T21:27:06.681Z,-4.90
2022-12-08T21:29:53.242Z,-4.90
2022-12-08T21:32:40.059Z,-4.80
2022-12-08T21:35:26.733Z,-4.80
2022-12-08T21:38:13.356Z,-4.80
2022-12-08T21:40:59.883Z,-4.70
2022-12-08T21:43:46.601Z,-4.70
2022-12-08T21:46:33.307Z,-4.70
2022-12-08T21:49:20.212Z,-4.70
2022-12-08T21:52:06.951Z,-4.70
2022-12-08T21:54:53.596Z,-4.70
2022-12-08T21:57:40.251Z,-4.70
2022-12-08T22:00:27.024Z,-4.80
2022-12-08T22:03:14.004Z,-4.80
2022-12-08T22:06:00.883Z,-4.90
2022-12-08T22:08:47.705Z,-4.90
2022-12-08T22:11:34.452Z,-4.90
2022-12-08T22:14:21.150Z,-4.90
2022-12-08T22:17:07.993Z,-4.90
2022-12-08T22:19:54.754Z,-4.90
2022-12-08T22:22:41.358Z,-4.90
2022-12-08T22:25:28.059Z,-4.90
2022-12-08T22:28:14.806Z,-4.90
2022-12-08T22:31:01.314Z,-4.90
2022-12-08T22:33:47.803Z,-4.90
2022-12-08T22:36:34.394Z,-5.00
2022-12-08T22:39:21.109Z,-5.00
2022-12-08T22:42:07.656Z,-5.00
2022-12-08T22:44:54.199Z,-5.00
2022-12-08T22:47:40.657Z,-5.00
2022-12-08T22:50:27.464Z,-5.00
2022-12-08T22:53:14.022Z,-5.00
2022-12-08T22:56:00.533Z,-5.00
2022-12-08T22:58:47.054Z,-5.00
2022-12-08T23:01:33.673Z,-5.00
2022-12-08T23:04:20.367Z,-5.00
2022-12-08T23:07:06.990Z,-5.00
2022-12-08T23:09:53.632Z,-5.00
2022-12-08T23:12:40.294Z,-5.00
2022-12-08T23:15:26.869Z,-5.00
2022-12-08T23:18:13.472Z,-4.90
2022-12-08T23:21:00.073Z,-5.00
2022-12-08T23:23:46.667Z,-5.00
2022-12-08T23:26:33.257Z,-5.10
2022-12-08T23:29:19.804Z,-5.10
2022-12-08T23:32:06.457Z,-5.20
2022-12-08T23:34:53.034Z,-5.20
2022-12-08T23:37:39.698Z,-5.20
2022-12-08T23:40:26.294Z,-5.30
2022-12-08T23:43:12.865Z,-5.30
2022-12-08T23:45:59.687Z,-5.40
2022-12-08T23:48:46.414Z,-5.40
2022-12-08T23:51:32.949Z,-5.50
2022-12-08T23:54:19.505Z,-5.70
2022-12-08T23:57:06.021Z,-5.80
2022-12-08T23:59:52.573Z,-5.80
